Observation data for Anton on 09/12/2017      Previous  Date       Current Mesonet Observations  Soil Data  Daily Summary Page  Observations in Plain Language
KAOS 120500Z 08004KT 18/11 A3015 RMK A01 T01830113  RH  066%=      5-min Rain = 0
KAOS 120505Z 08004KT 18/11 A3015 RMK A01 T01810114  RH  067%=      5-min Rain = 0
KAOS 120510Z 08003KT 18/11 A3015 RMK A01 T01790113  RH  068%=      5-min Rain = 0
KAOS 120515Z 09004KT 18/11 A3014 RMK A01 T01780114  RH  068%=      5-min Rain = 0
KAOS 120520Z 09004KT 18/12 A3014 RMK A01 T01770116  RH  070%=      5-min Rain = 0
KAOS 120525Z 09004KT 18/12 A3014 RMK A01 T01770116  RH  070%=      5-min Rain = 0
KAOS 120530Z 09004KT 18/12 A3014 RMK A01 T01770116  RH  070%=      5-min Rain = 0
KAOS 120535Z 10004KT 18/12 A3014 RMK A01 T01760116  RH  071%=      5-min Rain = 0
KAOS 120540Z 10003KT 17/11 A3014 RMK A01 T01740114  RH  070%=      5-min Rain = 0
KAOS 120545Z 10003KT 17/11 A3014 RMK A01 T01720114  RH  071%=      5-min Rain = 0
KAOS 120550Z 11003KT 17/11 A3014 RMK A01 T01700114  RH  072%=      5-min Rain = 0
KAOS 120555Z 11002KT 17/11 A3014 RMK A01 T01700114  RH  072%=      5-min Rain = 0
KAOS 120600Z 11002KT 17/11 A3013 RMK A01 T01700114  RH  072%=      5-min Rain = 0
KAOS 120605Z 11002KT 17/11 A3013 RMK A01 T01700113  RH  072%=      5-min Rain = 0
KAOS 120610Z 11002KT 17/11 A3013 RMK A01 T01690114  RH  072%=      5-min Rain = 0
KAOS 120615Z 11002KT 17/11 A3013 RMK A01 T01670113  RH  073%=      5-min Rain = 0
KAOS 120620Z 12003KT 17/12 A3013 RMK A01 T01670115  RH  074%=      5-min Rain = 0
KAOS 120625Z 12003KT 17/11 A3013 RMK A01 T01670114  RH  073%=      5-min Rain = 0
KAOS 120630Z 12003KT 17/11 A3013 RMK A01 T01670112  RH  073%=      5-min Rain = 0
KAOS 120635Z 11004KT 17/11 A3013 RMK A01 T01650110  RH  072%=      5-min Rain = 0
KAOS 120640Z 11004KT 16/11 A3013 RMK A01 T01620109  RH  073%=      5-min Rain = 0
KAOS 120645Z 11004KT 16/11 A3013 RMK A01 T01600111  RH  076%=      5-min Rain = 0
KAOS 120650Z 11004KT 16/11 A3012 RMK A01 T01580110  RH  076%=      5-min Rain = 0
KAOS 120655Z 11003KT 16/11 A3012 RMK A01 T01570110  RH  076%=      5-min Rain = 0
KAOS 120700Z 11003KT 16/11 A3012 RMK A01 T01560110  RH  077%=      5-min Rain = 0
KAOS 120705Z 11003KT 16/11 A3012 RMK A01 T01550109  RH  077%=      5-min Rain = 0
KAOS 120710Z 11003KT 16/11 A3012 RMK A01 T01550109  RH  077%=      5-min Rain = 0
KAOS 120715Z 11001KT 15/11 A3012 RMK A01 T01540107  RH  076%=      5-min Rain = 0
KAOS 120720Z 25004KT 15/10 A3012 RMK A01 T01510102  RH  075%=      5-min Rain = 0
KAOS 120725Z 24005KT 15/10 A3012 RMK A01 T01490100  RH  075%=      5-min Rain = 0
KAOS 120730Z 25006KT 15/10 A3012 RMK A01 T01500102  RH  076%=      5-min Rain = 0
KAOS 120735Z 25005KT 15/10 A3012 RMK A01 T01510102  RH  075%=      5-min Rain = 0
KAOS 120740Z 25004KT 15/10 A3012 RMK A01 T01500103  RH  076%=      5-min Rain = 0
KAOS 120745Z 25004KT 15/10 A3012 RMK A01 T01480103  RH  077%=      5-min Rain = 0
KAOS 120750Z 25004KT 15/10 A3012 RMK A01 T01460103  RH  077%=      5-min Rain = 0
KAOS 120755Z 25004KT 15/10 A3012 RMK A01 T01450101  RH  078%=      5-min Rain = 0
KAOS 120800Z 25004KT 14/10 A3012 RMK A01 T01430101  RH  078%=      5-min Rain = 0
KAOS 120805Z 26004KT 14/10 A3012 RMK A01 T01420099  RH  078%=      5-min Rain = 0
KAOS 120810Z 27004KT 14/10 A3012 RMK A01 T01410098  RH  078%=      5-min Rain = 0
KAOS 120815Z 28004KT 14/10 A3012 RMK A01 T01400098  RH  078%=      5-min Rain = 0
KAOS 120820Z 28004KT 14/10 A3012 RMK A01 T01400098  RH  078%=      5-min Rain = 0
KAOS 120825Z 28003KT 14/10 A3011 RMK A01 T01400097  RH  078%=      5-min Rain = 0
KAOS 120830Z 28004KT 14/10 A3011 RMK A01 T01380096  RH  078%=      5-min Rain = 0
KAOS 120835Z 28004KT 14/09 A3011 RMK A01 T01360094  RH  078%=      5-min Rain = 0
KAOS 120840Z 29004KT 14/10 A3011 RMK A01 T01360096  RH  079%=      5-min Rain = 0
KAOS 120845Z 31003KT 14/10 A3011 RMK A01 T01360098  RH  080%=      5-min Rain = 0
KAOS 120850Z 31002KT 14/10 A3011 RMK A01 T01360099  RH  081%=      5-min Rain = 0
KAOS 120855Z 31001KT 13/10 A3011 RMK A01 T01340099  RH  082%=      5-min Rain = 0
KAOS 120900Z 31001KT 14/10 A3011 RMK A01 T01350100  RH  082%=      5-min Rain = 0
KAOS 120905Z 32002KT 14/10 A3011 RMK A01 T01350098  RH  081%=      5-min Rain = 0
KAOS 120910Z 32002KT 13/10 A3011 RMK A01 T01340096  RH  080%=      5-min Rain = 0
KAOS 120915Z 32001KT 13/10 A3011 RMK A01 T01340097  RH  081%=      5-min Rain = 0
KAOS 120920Z 32001KT 14/10 A301 RMK A01 T01360098  RH  081%=      5-min Rain = 0
KAOS 120925Z 33001KT 14/10 A301 RMK A01 T01350097  RH  080%=      5-min Rain = 0
KAOS 120930Z 03002KT 13/10 A301 RMK A01 T01320097  RH  082%=      5-min Rain = 0
KAOS 120935Z 04002KT 13/10 A301 RMK A01 T01300097  RH  083%=      5-min Rain = 0
KAOS 120940Z 04001KT 13/10 A301 RMK A01 T01290098  RH  084%=      5-min Rain = 0
KAOS 120945Z 04000KT 13/10 A301 RMK A01 T01290096  RH  083%=      5-min Rain = 0
KAOS 120950Z 04000KT 13/09 A301 RMK A01 T01300093  RH  081%=      5-min Rain = 0
KAOS 120955Z 35001KT 13/09 A301 RMK A01 T01300092  RH  080%=      5-min Rain = 0
KAOS 121000Z 35000KT 13/09 A301 RMK A01 T01300093  RH  080%=      5-min Rain = 0
KAOS 121005Z 33000KT 13/09 A301 RMK A01 T01300092  RH  080%=      5-min Rain = 0
KAOS 121010Z 30003KT 13/09 A301 RMK A01 T01290090  RH  080%=      5-min Rain = 0
KAOS 121015Z 28006KT 13/09 A301 RMK A01 T01290094  RH  082%=      5-min Rain = 0
KAOS 121020Z 28006KT 13/10 A301 RMK A01 T01300097  RH  083%=      5-min Rain = 0
KAOS 121025Z 28005KT 13/10 A301 RMK A01 T01290097  RH  084%=      5-min Rain = 0
KAOS 121030Z 28005KT 13/10 A301 RMK A01 T01270096  RH  084%=      5-min Rain = 0
KAOS 121035Z 28004KT 13/10 A301 RMK A01 T01270096  RH  085%=      5-min Rain = 0
KAOS 121040Z 29003KT 13/10 A301 RMK A01 T01270098  RH  085%=      5-min Rain = 0
KAOS 121045Z 29004KT 13/10 A301 RMK A01 T01270096  RH  084%=      5-min Rain = 0
KAOS 121050Z 30004KT 13/10 A301 RMK A01 T01260095  RH  084%=      5-min Rain = 0
KAOS 121055Z 30002KT 13/09 A301 RMK A01 T01250094  RH  084%=      5-min Rain = 0
KAOS 121100Z 31000KT 12/09 A301 RMK A01 T01240094  RH  084%=      5-min Rain = 0
KAOS 121105Z 30001KT 12/09 A301 RMK A01 T01230093  RH  085%=      5-min Rain = 0
KAOS 121110Z 31002KT 12/09 A301 RMK A01 T01230093  RH  085%=      5-min Rain = 0
KAOS 121115Z 32001KT 12/09 A301 RMK A01 T01230094  RH  085%=      5-min Rain = 0
KAOS 121120Z 32001KT 12/09 A301 RMK A01 T01210091  RH  084%=      5-min Rain = 0
KAOS 121125Z 32001KT 12/09 A301 RMK A01 T01200092  RH  086%=      5-min Rain = 0
KAOS 121130Z 31002KT 12/09 A301 RMK A01 T01200092  RH  085%=      5-min Rain = 0
KAOS 121135Z 29003KT 12/09 A301 RMK A01 T01190089  RH  084%=      5-min Rain = 0
KAOS 121140Z 28003KT 12/09 A301 RMK A01 T01180089  RH  085%=      5-min Rain = 0
KAOS 121145Z 28002KT 12/09 A301 RMK A01 T01180090  RH  085%=      5-min Rain = 0
KAOS 121150Z 29004KT 12/09 A301 RMK A01 T01170090  RH  086%=      5-min Rain = 0
KAOS 121155Z 29004KT 12/09 A301 RMK A01 T01160088  RH  085%=      5-min Rain = 0
KAOS 121200Z 29004KT 12/09 A301 RMK A01 T01160089  RH  086%=      5-min Rain = 0
KAOS 121205Z 29004KT 12/09 A301 RMK A01 T01160091  RH  087%=      5-min Rain = 0
KAOS 121210Z 29003KT 12/09 A301 RMK A01 T01160091  RH  087%=      5-min Rain = 0
KAOS 121215Z 29004KT 12/09 A301 RMK A01 T01160091  RH  087%=      5-min Rain = 0
KAOS 121220Z 29004KT 12/09 A301 RMK A01 T01160090  RH  087%=      5-min Rain = 0
KAOS 121225Z 29003KT 12/09 A301 RMK A01 T01160090  RH  087%=      5-min Rain = 0
KAOS 121230Z 29003KT 12/09 A301 RMK A01 T01150089  RH  087%=      5-min Rain = 0
KAOS 121235Z 29004KT 12/09 A301 RMK A01 T01150090  RH  087%=      5-min Rain = 0
KAOS 121240Z 30004KT 12/09 A301 RMK A01 T01160091  RH  088%=      5-min Rain = 0
KAOS 121245Z 31004KT 12/09 A301 RMK A01 T01160092  RH  087%=      5-min Rain = 0
KAOS 121250Z 32003KT 12/10 A301 RMK A01 T01190095  RH  088%=      5-min Rain = 0
KAOS 121255Z 32001KT 12/10 A301 RMK A01 T01210096  RH  087%=      5-min Rain = 0
KAOS 121300Z 00000KT 12/09 A301 RMK A01 T01220094  RH  086%=      5-min Rain = 0
KAOS 121305Z 00000KT 12/10 A301 RMK A01 T01230095  RH  086%=      5-min Rain = 0
KAOS 121310Z 00000KT 13/10 A301 RMK A01 T01270098  RH  085%=      5-min Rain = 0
KAOS 121315Z 00000KT 13/10 A301 RMK A01 T01320100  RH  084%=      5-min Rain = 0
KAOS 121320Z 32000KT 14/10 A3011 RMK A01 T01350099  RH  082%=      5-min Rain = 0
KAOS 121325Z 31002KT 14/10 A3011 RMK A01 T01370101  RH  081%=      5-min Rain = 0
KAOS 121330Z 31002KT 14/10 A3011 RMK A01 T01420104  RH  081%=      5-min Rain = 0
KAOS 121335Z 30001KT 15/11 A3011 RMK A01 T01480107  RH  079%=      5-min Rain = 0
KAOS 121340Z 30001KT 16/11 A3011 RMK A01 T01550111  RH  078%=      5-min Rain = 0
KAOS 121345Z 30002KT 16/11 A3011 RMK A01 T01610113  RH  076%=      5-min Rain = 0
KAOS 121350Z 30002KT 17/12 A3011 RMK A01 T01670115  RH  074%=      5-min Rain = 0
KAOS 121355Z 30002KT 17/12 A3011 RMK A01 T01740116  RH  072%=      5-min Rain = 0
KAOS 121400Z 29002KT 18/12 A3011 RMK A01 T01770116  RH  070%=      5-min Rain = 0
KAOS 121405Z 28002KT 18/12 A3011 RMK A01 T01800116  RH  069%=      5-min Rain = 0
KAOS 121410Z 28002KT 18/12 A3011 RMK A01 T01840117  RH  068%=      5-min Rain = 0
KAOS 121415Z 28002KT 19/12 A301 RMK A01 T01880118  RH  066%=      5-min Rain = 0
KAOS 121420Z 26001KT 19/12 A301 RMK A01 T01940119  RH  064%=      5-min Rain = 0
KAOS 121425Z 24001KT 20/12 A301 RMK A01 T02010121  RH  062%=      5-min Rain = 0
KAOS 121430Z 26002KT 21/12 A301 RMK A01 T02050122  RH  061%=      5-min Rain = 0
KAOS 121435Z 27002KT 21/12 A301 RMK A01 T02090122  RH  060%=      5-min Rain = 0
KAOS 121440Z 27003KT 21/12 A301 RMK A01 T02120123  RH  059%=      5-min Rain = 0
KAOS 121445Z 30003KT 22/12 A301 RMK A01 T02180120  RH  056%=      5-min Rain = 0
KAOS 121450Z 30003KT 22/12 A301 RMK A01 T02210118  RH  054%=      5-min Rain = 0
KAOS 121455Z 31003KT 23/11 A301 RMK A01 T02250114  RH  051%=      5-min Rain = 0
KAOS 121500Z 27003KT 23/11 A301 RMK A01 T02270114  RH  050%=      5-min Rain = 0
KAOS 121505Z 30003KT 23/11 A301 RMK A01 T02300113  RH  049%=      5-min Rain = 0
KAOS 121510Z 29003KT 23/11 A301 RMK A01 T02320114  RH  049%=      5-min Rain = 0
KAOS 121515Z 30003KT 24/11 A301 RMK A01 T02350110  RH  047%=      5-min Rain = 0
KAOS 121520Z 30003KT 24/11 A301 RMK A01 T02370110  RH  046%=      5-min Rain = 0
KAOS 121525Z 30003KT 24/11 A301 RMK A01 T02410111  RH  045%=      5-min Rain = 0
KAOS 121530Z 24002KT 25/11 A301 RMK A01 T02450112  RH  045%=      5-min Rain = 0
KAOS 121535Z 22002KT 25/11 A301 RMK A01 T02500114  RH  044%=      5-min Rain = 0
KAOS 121540Z 27002KT 26/11 A301 RMK A01 T02550110  RH  042%=      5-min Rain = 0
KAOS 121545Z 24003KT 26/11 A301 RMK A01 T02560109  RH  041%=      5-min Rain = 0
KAOS 121550Z 23002KT 26/11 A301 RMK A01 T02550110  RH  041%=      5-min Rain = 0
KAOS 121555Z 24003KT 26/11 A301 RMK A01 T02590113  RH  041%=      5-min Rain = 0
KAOS 121600Z 22002KT 26/11 A301 RMK A01 T02620113  RH  041%=      5-min Rain = 0
KAOS 121605Z 23003KT 26/11 A301 RMK A01 T02640108  RH  039%=      5-min Rain = 0
KAOS 121610Z 24005KT 27/11 A3009 RMK A01 T02660105  RH  038%=      5-min Rain = 0
KAOS 121615Z 25004KT 27/10 A3009 RMK A01 T02720099  RH  035%=      5-min Rain = 0
KAOS 121620Z 24002KT 28/10 A3009 RMK A01 T02750101  RH  035%=      5-min Rain = 0
KAOS 121625Z 28004KT 28/10 A3009 RMK A01 T02760102  RH  035%=      5-min Rain = 0
KAOS 121630Z 25004KT 28/10 A3009 RMK A01 T02770104  RH  035%=      5-min Rain = 0
KAOS 121635Z 28003KT 28/10 A3009 RMK A01 T02790104  RH  035%=      5-min Rain = 0
KAOS 121640Z 26002KT 28/10 A3009 RMK A01 T02840103  RH  033%=      5-min Rain = 0
KAOS 121645Z 24004KT 29/10 A3009 RMK A01 T02850101  RH  033%=      5-min Rain = 0
KAOS 121650Z 26002KT 28/10 A3009 RMK A01 T02840097  RH  032%=      5-min Rain = 0
KAOS 121655Z 30004KT 29/09 A3008 RMK A01 T02890090  RH  030%=      5-min Rain = 0
KAOS 121700Z 29004KT 29/09 A3008 RMK A01 T02940091  RH  029%=      5-min Rain = 0
KAOS 121705Z 30004KT 30/09 A3008 RMK A01 T02970092  RH  029%=      5-min Rain = 0
KAOS 121710Z 31006G11KT 30/09 A3008 RMK A01 T02990092  RH  028%=      5-min Rain = 0
KAOS 121715Z 31006KT 30/09 A3008 RMK A01 T02990091  RH  028%=      5-min Rain = 0
KAOS 121720Z 31004G9KT 30/09 A3007 RMK A01 T03000093  RH  029%=      5-min Rain = 0
KAOS 121725Z 29005G10KT 30/09 A3007 RMK A01 T03010089  RH  027%=      5-min Rain = 0
KAOS 121730Z 30007KT 30/09 A3007 RMK A01 T03010090  RH  028%=      5-min Rain = 0
KAOS 121735Z 31004G9KT 30/09 A3007 RMK A01 T03030094  RH  028%=      5-min Rain = 0
KAOS 121740Z 27006KT 31/09 A3007 RMK A01 T03070093  RH  027%=      5-min Rain = 0
KAOS 121745Z 28005KT 31/09 A3007 RMK A01 T03070090  RH  027%=      5-min Rain = 0
KAOS 121750Z 26006KT 31/09 A3006 RMK A01 T03060093  RH  028%=      5-min Rain = 0
KAOS 121755Z 28005G11KT 31/09 A3006 RMK A01 T03080090  RH  027%=      5-min Rain = 0
KAOS 121800Z 32004G10KT 31/08 A3006 RMK A01 T03110081  RH  025%=      5-min Rain = 0
KAOS 121805Z 31005G10KT 31/08 A3006 RMK A01 T03130084  RH  025%=      5-min Rain = 0
KAOS 121810Z 32005KT 32/08 A3006 RMK A01 T03160079  RH  023%=      5-min Rain = 0
KAOS 121815Z 31005G13KT 32/08 A3005 RMK A01 T03180080  RH  023%=      5-min Rain = 0
KAOS 121820Z 28006KT 32/08 A3005 RMK A01 T03160079  RH  024%=      5-min Rain = 0
KAOS 121825Z 29005G10KT 32/08 A3005 RMK A01 T03150080  RH  024%=      5-min Rain = 0
KAOS 121830Z 27004G9KT 32/08 A3005 RMK A01 T03190081  RH  023%=      5-min Rain = 0
KAOS 121835Z 27005G10KT 32/08 A3004 RMK A01 T03200081  RH  023%=      5-min Rain = 0
KAOS 121840Z 29005G10KT 32/08 A3004 RMK A01 T03210083  RH  024%=      5-min Rain = 0
KAOS 121845Z 28004G11KT 32/08 A3004 RMK A01 T03210081  RH  023%=      5-min Rain = 0
KAOS 121850Z 29007G12KT 32/08 A3004 RMK A01 T03210084  RH  024%=      5-min Rain = 0
KAOS 121855Z 31007G12KT 33/08 A3003 RMK A01 T03260084  RH  023%=      5-min Rain = 0
KAOS 121900Z 35005KT 32/09 A3003 RMK A01 T03240085  RH  023%=      5-min Rain = 0
KAOS 121905Z 32004KT 33/08 A3003 RMK A01 T03250084  RH  023%=      5-min Rain = 0
KAOS 121910Z 33006G11KT 33/08 A3002 RMK A01 T03280081  RH  022%=      5-min Rain = 0
KAOS 121915Z 28008G13KT 33/08 A3002 RMK A01 T03280082  RH  022%=      5-min Rain = 0
KAOS 121920Z 28004G9KT 33/08 A3002 RMK A01 T03260080  RH  022%=      5-min Rain = 0
KAOS 121925Z 26004KT 33/08 A3001 RMK A01 T03280079  RH  022%=      5-min Rain = 0
KAOS 121930Z 29003KT 33/08 A3001 RMK A01 T03280080  RH  022%=      5-min Rain = 0
KAOS 121935Z 32007G13KT 33/08 A3001 RMK A01 T03330078  RH  021%=      5-min Rain = 0
KAOS 121940Z 28006KT 33/08 A3001 RMK A01 T03320077  RH  021%=      5-min Rain = 0
KAOS 121945Z 27006KT 34/08 A30 RMK A01 T03360076  RH  021%=      5-min Rain = 0
KAOS 121950Z 33009KT 34/07 A30 RMK A01 T03350074  RH  020%=      5-min Rain = 0
KAOS 121955Z 33008KT 34/07 A30 RMK A01 T03360074  RH  020%=      5-min Rain = 0
KAOS 122000Z 33008KT 34/07 A2999 RMK A01 T03350074  RH  020%=      5-min Rain = 0
KAOS 122005Z 30008G13KT 34/08 A2999 RMK A01 T03360076  RH  021%=      5-min Rain = 0
KAOS 122010Z 29005G12KT 34/08 A2999 RMK A01 T03360078  RH  021%=      5-min Rain = 0
KAOS 122015Z 22003G8KT 34/08 A2999 RMK A01 T03360078  RH  021%=      5-min Rain = 0
KAOS 122020Z 30008G13KT 34/08 A2999 RMK A01 T03350076  RH  021%=      5-min Rain = 0
KAOS 122025Z 32007G12KT 34/08 A2998 RMK A01 T03350077  RH  021%=      5-min Rain = 0
KAOS 122030Z 34005G10KT 34/08 A2998 RMK A01 T03350076  RH  021%=      5-min Rain = 0
KAOS 122035Z 04003KT 34/08 A2998 RMK A01 T03350075  RH  021%=      5-min Rain = 0
KAOS 122040Z 30004G9KT 34/08 A2997 RMK A01 T03370077  RH  021%=      5-min Rain = 0
KAOS 122045Z 28006G11KT 34/08 A2997 RMK A01 T03400075  RH  020%=      5-min Rain = 0
KAOS 122050Z 30007G13KT 34/08 A2997 RMK A01 T03370076  RH  021%=      5-min Rain = 0
KAOS 122055Z 29006G11KT 34/07 A2997 RMK A01 T03380074  RH  020%=      5-min Rain = 0
KAOS 122100Z 28005G13KT 34/07 A2997 RMK A01 T03390073  RH  020%=      5-min Rain = 0
KAOS 122105Z 29006G12KT 34/07 A2997 RMK A01 T03410071  RH  019%=      5-min Rain = 0
KAOS 122110Z 29007KT 35/07 A2996 RMK A01 T03450069  RH  019%=      5-min Rain = 0
KAOS 122115Z 27007KT 34/07 A2996 RMK A01 T03440071  RH  019%=      5-min Rain = 0
KAOS 122120Z 31010KT 34/07 A2996 RMK A01 T03430072  RH  019%=      5-min Rain = 0
KAOS 122125Z 32008KT 34/07 A2996 RMK A01 T03380070  RH  020%=      5-min Rain = 0
KAOS 122130Z 29006KT 34/07 A2996 RMK A01 T03390071  RH  020%=      5-min Rain = 0
KAOS 122135Z 27006G14KT 34/07 A2995 RMK A01 T03400072  RH  020%=      5-min Rain = 0
KAOS 122140Z 30009G14KT 34/07 A2995 RMK A01 T03430068  RH  019%=      5-min Rain = 0
KAOS 122145Z 32007KT 34/07 A2995 RMK A01 T03440069  RH  019%=      5-min Rain = 0
KAOS 122150Z 31005G12KT 34/07 A2995 RMK A01 T03440068  RH  019%=      5-min Rain = 0
KAOS 122155Z 31006G11KT 35/07 A2995 RMK A01 T03450069  RH  019%=      5-min Rain = 0
KAOS 122200Z 29007G13KT 34/07 A2995 RMK A01 T03430066  RH  018%=      5-min Rain = 0
KAOS 122205Z 29006KT 34/07 A2995 RMK A01 T03390066  RH  019%=      5-min Rain = 0
KAOS 122210Z 29006KT 34/07 A2995 RMK A01 T03390065  RH  019%=      5-min Rain = 0
KAOS 122215Z 35003KT 34/07 A2995 RMK A01 T03380066  RH  019%=      5-min Rain = 0
KAOS 122220Z 31007G12KT 34/07 A2995 RMK A01 T03380072  RH  020%=      5-min Rain = 0
KAOS 122225Z 29006KT 34/08 A2995 RMK A01 T03410077  RH  020%=      5-min Rain = 0
KAOS 122230Z 30005KT 34/08 A2994 RMK A01 T03380076  RH  020%=      5-min Rain = 0
KAOS 122235Z 29009KT 34/08 A2994 RMK A01 T03390078  RH  021%=      5-min Rain = 0
KAOS 122240Z 30008G15KT 34/08 A2994 RMK A01 T03370078  RH  021%=      5-min Rain = 0
KAOS 122245Z 29008KT 34/08 A2994 RMK A01 T03360077  RH  021%=      5-min Rain = 0
KAOS 122250Z 29007KT 33/08 A2994 RMK A01 T03340077  RH  021%=      5-min Rain = 0
KAOS 122255Z 31007G12KT 33/08 A2994 RMK A01 T03340077  RH  021%=      5-min Rain = 0
KAOS 122300Z 28007KT 33/08 A2994 RMK A01 T03330075  RH  021%=      5-min Rain = 0
KAOS 122305Z 28007KT 33/07 A2994 RMK A01 T03330074  RH  021%=      5-min Rain = 0
KAOS 122310Z 29007KT 33/07 A2994 RMK A01 T03320072  RH  021%=      5-min Rain = 0
KAOS 122315Z 28006KT 33/07 A2994 RMK A01 T03310070  RH  020%=      5-min Rain = 0
KAOS 122320Z 27005KT 33/07 A2994 RMK A01 T03310069  RH  020%=      5-min Rain = 0
KAOS 122325Z 29007KT 33/07 A2993 RMK A01 T03320069  RH  020%=      5-min Rain = 0
KAOS 122330Z 29006KT 33/07 A2993 RMK A01 T03310069  RH  020%=      5-min Rain = 0
KAOS 122335Z 27005KT 33/07 A2993 RMK A01 T03300072  RH  021%=      5-min Rain = 0
KAOS 122340Z 28006KT 33/07 A2993 RMK A01 T03280073  RH  021%=      5-min Rain = 0
KAOS 122345Z 28007KT 33/07 A2993 RMK A01 T03270067  RH  020%=      5-min Rain = 0
KAOS 122350Z 27006KT 33/07 A2993 RMK A01 T03250073  RH  021%=      5-min Rain = 0
KAOS 122355Z 27007KT 32/07 A2993 RMK A01 T03210073  RH  022%=      5-min Rain = 0
KAOS 130000Z 27006KT 32/08 A2993 RMK A01 T03180075  RH  023%=      5-min Rain = 0
KAOS 130005Z 27005KT 32/08 A2993 RMK A01 T03150080  RH  024%=      5-min Rain = 0
KAOS 130010Z 27004KT 31/08 A2993 RMK A01 T03110082  RH  025%=      5-min Rain = 0
KAOS 130015Z 27004KT 31/09 A2993 RMK A01 T03060085  RH  026%=      5-min Rain = 0
KAOS 130020Z 26004KT 30/09 A2993 RMK A01 T03020091  RH  028%=      5-min Rain = 0
KAOS 130025Z 26004KT 30/09 A2993 RMK A01 T02970094  RH  029%=      5-min Rain = 0
KAOS 130030Z 26003KT 29/10 A2993 RMK A01 T02930097  RH  030%=      5-min Rain = 0
KAOS 130035Z 27004KT 29/10 A2993 RMK A01 T02890100  RH  032%=      5-min Rain = 0
KAOS 130040Z 27004KT 29/10 A2993 RMK A01 T02860100  RH  033%=      5-min Rain = 0
KAOS 130045Z 27004KT 28/10 A2993 RMK A01 T02810102  RH  034%=      5-min Rain = 0
KAOS 130050Z 27005KT 28/11 A2993 RMK A01 T02750106  RH  036%=      5-min Rain = 0
KAOS 130055Z 28004KT 27/11 A2993 RMK A01 T02690110  RH  038%=      5-min Rain = 0
KAOS 130100Z 28003KT 26/11 A2993 RMK A01 T02640109  RH  039%=      5-min Rain = 0
KAOS 130105Z 28003KT 26/11 A2993 RMK A01 T02590105  RH  039%=      5-min Rain = 0
KAOS 130110Z 28003KT 25/10 A2993 RMK A01 T02540100  RH  039%=      5-min Rain = 0
KAOS 130115Z 28002KT 25/10 A2993 RMK A01 T02490103  RH  041%=      5-min Rain = 0
KAOS 130120Z 28001KT 25/10 A2993 RMK A01 T02460104  RH  042%=      5-min Rain = 0
KAOS 130125Z 28002KT 25/11 A2993 RMK A01 T02450108  RH  044%=      5-min Rain = 0
KAOS 130130Z 27003KT 24/11 A2993 RMK A01 T02430107  RH  044%=      5-min Rain = 0
KAOS 130135Z 27004KT 24/10 A2993 RMK A01 T02400102  RH  043%=      5-min Rain = 0
KAOS 130140Z 28003KT 24/10 A2993 RMK A01 T02360101  RH  044%=      5-min Rain = 0
KAOS 130145Z 28002KT 23/10 A2993 RMK A01 T02320100  RH  045%=      5-min Rain = 0
KAOS 130150Z 28000KT 23/10 A2993 RMK A01 T02280099  RH  045%=      5-min Rain = 0
KAOS 130155Z 00000KT 23/10 A2994 RMK A01 T02270103  RH  047%=      5-min Rain = 0
KAOS 130200Z 28000KT 23/10 A2994 RMK A01 T02290102  RH  046%=      5-min Rain = 0
KAOS 130205Z 27002KT 23/10 A2994 RMK A01 T02310098  RH  044%=      5-min Rain = 0
KAOS 130210Z 27004KT 22/10 A2994 RMK A01 T02240095  RH  045%=      5-min Rain = 0
KAOS 130215Z 29003KT 22/10 A2994 RMK A01 T02200100  RH  048%=      5-min Rain = 0
KAOS 130220Z 30002KT 22/10 A2994 RMK A01 T02190098  RH  048%=      5-min Rain = 0
KAOS 130225Z 34003KT 22/10 A2995 RMK A01 T02150101  RH  050%=      5-min Rain = 0
KAOS 130230Z 04009KT 22/11 A2995 RMK A01 T02170107  RH  051%=      5-min Rain = 0
KAOS 130235Z 06007KT 23/10 A2995 RMK A01 T02310102  RH  046%=      5-min Rain = 0
KAOS 130240Z 05006KT 24/11 A2996 RMK A01 T02350107  RH  046%=      5-min Rain = 0
KAOS 130245Z 06007KT 24/11 A2996 RMK A01 T02350112  RH  048%=      5-min Rain = 0
KAOS 130250Z 06006KT 23/11 A2996 RMK A01 T02330114  RH  049%=      5-min Rain = 0
KAOS 130255Z 06007KT 23/12 A2996 RMK A01 T02300116  RH  050%=      5-min Rain = 0
KAOS 130300Z 06007KT 23/12 A2996 RMK A01 T02290117  RH  051%=      5-min Rain = 0
KAOS 130305Z 07008KT 23/12 A2996 RMK A01 T02270118  RH  052%=      5-min Rain = 0
KAOS 130310Z 07008KT 23/12 A2996 RMK A01 T02280119  RH  052%=      5-min Rain = 0
KAOS 130315Z 07008KT 23/12 A2996 RMK A01 T02270119  RH  053%=      5-min Rain = 0
KAOS 130320Z 07008KT 23/12 A2996 RMK A01 T02250120  RH  053%=      5-min Rain = 0
KAOS 130325Z 07008KT 22/12 A2996 RMK A01 T02240120  RH  054%=      5-min Rain = 0
KAOS 130330Z 08008KT 22/12 A2996 RMK A01 T02230120  RH  054%=      5-min Rain = 0
KAOS 130335Z 08008KT 22/12 A2996 RMK A01 T02220120  RH  054%=      5-min Rain = 0
KAOS 130340Z 08008KT 22/12 A2996 RMK A01 T02230119  RH  054%=      5-min Rain = 0
KAOS 130345Z 08008KT 22/12 A2996 RMK A01 T02230119  RH  054%=      5-min Rain = 0
KAOS 130350Z 08008KT 22/12 A2996 RMK A01 T02220119  RH  054%=      5-min Rain = 0
KAOS 130355Z 08008KT 22/12 A2996 RMK A01 T02200119  RH  055%=      5-min Rain = 0
KAOS 130400Z 08008KT 22/12 A2996 RMK A01 T02190119  RH  055%=      5-min Rain = 0
KAOS 130405Z 08007KT 22/12 A2997 RMK A01 T02180119  RH  055%=      5-min Rain = 0
KAOS 130410Z 08007KT 22/12 A2997 RMK A01 T02170118  RH  055%=      5-min Rain = 0
KAOS 130415Z 08007KT 22/12 A2997 RMK A01 T02160118  RH  056%=      5-min Rain = 0
KAOS 130420Z 08006KT 22/12 A2997 RMK A01 T02160118  RH  056%=      5-min Rain = 0
KAOS 130425Z 09005KT 22/12 A2997 RMK A01 T02160119  RH  056%=      5-min Rain = 0
KAOS 130430Z 08006KT 21/12 A2997 RMK A01 T02140118  RH  056%=      5-min Rain = 0
KAOS 130435Z 09006KT 21/12 A2997 RMK A01 T02120119  RH  057%=      5-min Rain = 0
KAOS 130440Z 09006KT 21/12 A2997 RMK A01 T02080119  RH  059%=      5-min Rain = 0
KAOS 130445Z 09006KT 21/12 A2997 RMK A01 T02050118  RH  060%=      5-min Rain = 0
KAOS 130450Z 09005KT 20/12 A2997 RMK A01 T02020118  RH  061%=      5-min Rain = 0
KAOS 130455Z 09006KT 20/12 A2997 RMK A01 T01980118  RH  062%=      5-min Rain = 0

Page generated in 0.0092 seconds.